sensor_id;sensor_type;location;lat;lon;timestamp;temperature;humidity
6357;DHT22;3211;53.452;-2.264;2023-04-25T00:01:05;6.50;41.80
6357;DHT22;3211;53.452;-2.264;2023-04-25T00:03:49;6.40;51.30
6357;DHT22;3211;53.452;-2.264;2023-04-25T00:06:31;6.30;49.10
6357;DHT22;3211;53.452;-2.264;2023-04-25T00:09:13;6.30;51.60
6357;DHT22;3211;53.452;-2.264;2023-04-25T00:11:55;6.20;52.00
6357;DHT22;3211;53.452;-2.264;2023-04-25T00:14:37;6.20;61.90
6357;DHT22;3211;53.452;-2.264;2023-04-25T00:17:21;6.10;52.60
6357;DHT22;3211;53.452;-2.264;2023-04-25T00:20:06;6.10;60.40
6357;DHT22;3211;53.452;-2.264;2023-04-25T00:22:49;6.10;65.80
6357;DHT22;3211;53.452;-2.264;2023-04-25T00:25:33;6.10;63.30
6357;DHT22;3211;53.452;-2.264;2023-04-25T00:28:15;6.00;69.30
6357;DHT22;3211;53.452;-2.264;2023-04-25T00:30:57;6.00;76.90
6357;DHT22;3211;53.452;-2.264;2023-04-25T00:33:41;5.80;80.00
6357;DHT22;3211;53.452;-2.264;2023-04-25T00:36:22;5.80;74.00
6357;DHT22;3211;53.452;-2.264;2023-04-25T00:39:04;5.80;77.60
6357;DHT22;3211;53.452;-2.264;2023-04-25T00:41:47;5.70;82.60
6357;DHT22;3211;53.452;-2.264;2023-04-25T00:44:29;5.70;88.20
6357;DHT22;3211;53.452;-2.264;2023-04-25T00:47:13;5.60;91.00
6357;DHT22;3211;53.452;-2.264;2023-04-25T00:49:56;5.60;87.50
6357;DHT22;3211;53.452;-2.264;2023-04-25T00:52:39;5.60;94.60
6357;DHT22;3211;53.452;-2.264;2023-04-25T00:55:22;5.60;94.40
6357;DHT22;3211;53.452;-2.264;2023-04-25T00:58:04;5.50;97.80
6357;DHT22;3211;53.452;-2.264;2023-04-25T01:00:47;5.50;99.90
6357;DHT22;3211;53.452;-2.264;2023-04-25T01:03:31;5.40;99.90
6357;DHT22;3211;53.452;-2.264;2023-04-25T01:06:15;5.40;99.90
6357;DHT22;3211;53.452;-2.264;2023-04-25T01:08:58;5.30;99.90
6357;DHT22;3211;53.452;-2.264;2023-04-25T01:11:40;5.30;99.90
6357;DHT22;3211;53.452;-2.264;2023-04-25T01:14:22;5.30;99.90
6357;DHT22;3211;53.452;-2.264;2023-04-25T01:17:04;5.30;99.90
6357;DHT22;3211;53.452;-2.264;2023-04-25T01:19:48;5.20;99.90
6357;DHT22;3211;53.452;-2.264;2023-04-25T01:22:33;5.20;99.90
6357;DHT22;3211;53.452;-2.264;2023-04-25T01:25:15;5.10;99.90
6357;DHT22;3211;53.452;-2.264;2023-04-25T01:27:58;5.00;99.90
6357;DHT22;3211;53.452;-2.264;2023-04-25T01:30:40;5.00;99.90
6357;DHT22;3211;53.452;-2.264;2023-04-25T01:33:23;4.90;99.90
6357;DHT22;3211;53.452;-2.264;2023-04-25T01:36:05;4.90;99.90
6357;DHT22;3211;53.452;-2.264;2023-04-25T01:38:49;4.80;99.90
6357;DHT22;3211;53.452;-2.264;2023-04-25T01:41:31;4.80;99.90
6357;DHT22;3211;53.452;-2.264;2023-04-25T01:44:13;4.70;99.90
6357;DHT22;3211;53.452;-2.264;2023-04-25T01:46:56;4.70;99.90
6357;DHT22;3211;53.452;-2.264;2023-04-25T01:49:38;4.80;99.90
6357;DHT22;3211;53.452;-2.264;2023-04-25T01:52:20;4.60;99.90
6357;DHT22;3211;53.452;-2.264;2023-04-25T01:55:04;4.60;99.90
6357;DHT22;3211;53.452;-2.264;2023-04-25T01:57:46;4.50;99.90
6357;DHT22;3211;53.452;-2.264;2023-04-25T02:00:28;4.40;99.90
6357;DHT22;3211;53.452;-2.264;2023-04-25T02:03:10;4.50;99.90
6357;DHT22;3211;53.452;-2.264;2023-04-25T02:05:52;4.50;99.90
6357;DHT22;3211;53.452;-2.264;2023-04-25T02:08:34;4.40;99.90
6357;DHT22;3211;53.452;-2.264;2023-04-25T02:11:19;4.30;99.90
6357;DHT22;3211;53.452;-2.264;2023-04-25T02:14:01;4.30;99.90
6357;DHT22;3211;53.452;-2.264;2023-04-25T02:16:42;4.30;99.90
6357;DHT22;3211;53.452;-2.264;2023-04-25T02:19:25;4.30;99.90
6357;DHT22;3211;53.452;-2.264;2023-04-25T02:22:07;4.20;99.90
6357;DHT22;3211;53.452;-2.264;2023-04-25T02:24:49;4.20;99.90
6357;DHT22;3211;53.452;-2.264;2023-04-25T02:27:32;4.20;99.90
6357;DHT22;3211;53.452;-2.264;2023-04-25T02:30:14;4.20;99.90
6357;DHT22;3211;53.452;-2.264;2023-04-25T02:32:56;4.20;99.90
6357;DHT22;3211;53.452;-2.264;2023-04-25T02:35:38;4.20;99.90
6357;DHT22;3211;53.452;-2.264;2023-04-25T02:38:20;4.20;99.90
6357;DHT22;3211;53.452;-2.264;2023-04-25T02:41:02;4.10;99.90
6357;DHT22;3211;53.452;-2.264;2023-04-25T02:43:45;4.10;99.90
6357;DHT22;3211;53.452;-2.264;2023-04-25T02:46:27;4.20;99.90
6357;DHT22;3211;53.452;-2.264;2023-04-25T02:49:09;4.30;99.90
6357;DHT22;3211;53.452;-2.264;2023-04-25T02:51:51;4.20;99.90
6357;DHT22;3211;53.452;-2.264;2023-04-25T02:54:33;4.20;99.90
6357;DHT22;3211;53.452;-2.264;2023-04-25T02:57:15;4.20;99.90
6357;DHT22;3211;53.452;-2.264;2023-04-25T02:59:58;4.20;99.90
6357;DHT22;3211;53.452;-2.264;2023-04-25T03:02:40;4.20;99.90
6357;DHT22;3211;53.452;-2.264;2023-04-25T03:05:22;4.20;99.90
6357;DHT22;3211;53.452;-2.264;2023-04-25T03:08:04;4.20;99.90
6357;DHT22;3211;53.452;-2.264;2023-04-25T03:10:46;4.10;99.90
6357;DHT22;3211;53.452;-2.264;2023-04-25T03:13:28;4.10;99.90
6357;DHT22;3211;53.452;-2.264;2023-04-25T03:16:12;4.20;99.90
6357;DHT22;3211;53.452;-2.264;2023-04-25T03:18:54;4.10;99.90
6357;DHT22;3211;53.452;-2.264;2023-04-25T03:21:36;4.00;99.90
6357;DHT22;3211;53.452;-2.264;2023-04-25T03:24:18;4.00;99.90
6357;DHT22;3211;53.452;-2.264;2023-04-25T03:27:00;4.00;99.90
6357;DHT22;3211;53.452;-2.264;2023-04-25T03:29:42;3.90;99.90
6357;DHT22;3211;53.452;-2.264;2023-04-25T03:32:25;3.80;99.90
6357;DHT22;3211;53.452;-2.264;2023-04-25T03:35:07;3.80;99.90
6357;DHT22;3211;53.452;-2.264;2023-04-25T03:37:49;3.80;99.90
6357;DHT22;3211;53.452;-2.264;2023-04-25T03:40:32;3.70;99.90
6357;DHT22;3211;53.452;-2.264;2023-04-25T03:43:13;3.60;99.90
6357;DHT22;3211;53.452;-2.264;2023-04-25T03:45:55;3.60;99.90
6357;DHT22;3211;53.452;-2.264;2023-04-25T03:48:39;3.60;99.90
6357;DHT22;3211;53.452;-2.264;2023-04-25T03:51:21;3.60;99.90
6357;DHT22;3211;53.452;-2.264;2023-04-25T03:54:03;3.50;99.90
6357;DHT22;3211;53.452;-2.264;2023-04-25T03:56:45;3.50;99.90
6357;DHT22;3211;53.452;-2.264;2023-04-25T03:59:27;3.50;99.90
6357;DHT22;3211;53.452;-2.264;2023-04-25T04:02:09;3.40;99.90
6357;DHT22;3211;53.452;-2.264;2023-04-25T04:04:52;3.40;99.90
6357;DHT22;3211;53.452;-2.264;2023-04-25T04:07:36;3.40;99.90
6357;DHT22;3211;53.452;-2.264;2023-04-25T04:10:20;3.40;99.90
6357;DHT22;3211;53.452;-2.264;2023-04-25T04:13:02;3.50;99.90
6357;DHT22;3211;53.452;-2.264;2023-04-25T04:15:44;3.40;99.90
6357;DHT22;3211;53.452;-2.264;2023-04-25T04:18:26;3.30;99.90
6357;DHT22;3211;53.452;-2.264;2023-04-25T04:21:09;3.40;99.90
6357;DHT22;3211;53.452;-2.264;2023-04-25T04:23:51;3.30;99.90
6357;DHT22;3211;53.452;-2.264;2023-04-25T04:26:34;3.20;99.90
6357;DHT22;3211;53.452;-2.264;2023-04-25T04:29:17;3.10;99.90
6357;DHT22;3211;53.452;-2.264;2023-04-25T04:32:02;3.20;99.90
6357;DHT22;3211;53.452;-2.264;2023-04-25T04:34:44;3.10;99.90
6357;DHT22;3211;53.452;-2.264;2023-04-25T04:37:29;3.20;99.90
6357;DHT22;3211;53.452;-2.264;2023-04-25T04:40:11;3.10;99.90
6357;DHT22;3211;53.452;-2.264;2023-04-25T04:42:55;3.00;99.90
6357;DHT22;3211;53.452;-2.264;2023-04-25T04:45:38;3.00;99.90
6357;DHT22;3211;53.452;-2.264;2023-04-25T04:48:20;3.00;99.90
6357;DHT22;3211;53.452;-2.264;2023-04-25T04:51:03;3.00;99.90
6357;DHT22;3211;53.452;-2.264;2023-04-25T04:53:46;3.00;99.90
6357;DHT22;3211;53.452;-2.264;2023-04-25T04:56:28;2.90;99.90
6357;DHT22;3211;53.452;-2.264;2023-04-25T04:59:11;3.00;99.90
6357;DHT22;3211;53.452;-2.264;2023-04-25T05:01:53;2.90;99.90
6357;DHT22;3211;53.452;-2.264;2023-04-25T05:04:35;2.90;99.90
6357;DHT22;3211;53.452;-2.264;2023-04-25T05:07:17;2.90;99.90
6357;DHT22;3211;53.452;-2.264;2023-04-25T05:10:00;2.90;99.90
6357;DHT22;3211;53.452;-2.264;2023-04-25T05:12:42;2.90;99.90
6357;DHT22;3211;53.452;-2.264;2023-04-25T05:15:24;2.90;99.90
6357;DHT22;3211;53.452;-2.264;2023-04-25T05:18:06;2.90;99.90
6357;DHT22;3211;53.452;-2.264;2023-04-25T05:20:48;2.90;99.90
6357;DHT22;3211;53.452;-2.264;2023-04-25T05:23:31;3.00;99.90
6357;DHT22;3211;53.452;-2.264;2023-04-25T05:26:14;3.00;99.90
6357;DHT22;3211;53.452;-2.264;2023-04-25T05:28:56;3.00;99.90
6357;DHT22;3211;53.452;-2.264;2023-04-25T05:31:38;3.00;99.90
6357;DHT22;3211;53.452;-2.264;2023-04-25T05:34:20;3.00;99.90
6357;DHT22;3211;53.452;-2.264;2023-04-25T05:37:02;3.10;99.90
6357;DHT22;3211;53.452;-2.264;2023-04-25T05:39:44;3.10;99.90
6357;DHT22;3211;53.452;-2.264;2023-04-25T05:42:27;3.10;99.90
6357;DHT22;3211;53.452;-2.264;2023-04-25T05:45:09;3.20;99.90
6357;DHT22;3211;53.452;-2.264;2023-04-25T05:47:51;3.20;99.90
6357;DHT22;3211;53.452;-2.264;2023-04-25T05:50:33;3.30;99.90
6357;DHT22;3211;53.452;-2.264;2023-04-25T05:53:15;3.40;99.90
6357;DHT22;3211;53.452;-2.264;2023-04-25T05:55:57;3.40;99.90
6357;DHT22;3211;53.452;-2.264;2023-04-25T05:58:40;3.50;99.90
6357;DHT22;3211;53.452;-2.264;2023-04-25T06:01:22;3.60;99.90
6357;DHT22;3211;53.452;-2.264;2023-04-25T06:04:04;3.80;99.90
6357;DHT22;3211;53.452;-2.264;2023-04-25T06:06:46;3.90;99.90
6357;DHT22;3211;53.452;-2.264;2023-04-25T06:09:28;4.10;99.90
6357;DHT22;3211;53.452;-2.264;2023-04-25T06:12:10;4.20;99.90
6357;DHT22;3211;53.452;-2.264;2023-04-25T06:14:54;4.30;99.90
6357;DHT22;3211;53.452;-2.264;2023-04-25T06:17:36;4.40;99.90
6357;DHT22;3211;53.452;-2.264;2023-04-25T06:20:18;4.50;99.90
6357;DHT22;3211;53.452;-2.264;2023-04-25T06:23:03;4.10;99.90
6357;DHT22;3211;53.452;-2.264;2023-04-25T06:25:45;3.90;99.90
6357;DHT22;3211;53.452;-2.264;2023-04-25T06:28:27;3.90;99.90
6357;DHT22;3211;53.452;-2.264;2023-04-25T06:31:10;3.90;99.90
6357;DHT22;3211;53.452;-2.264;2023-04-25T06:33:52;3.90;99.90
6357;DHT22;3211;53.452;-2.264;2023-04-25T06:36:35;4.10;99.90
6357;DHT22;3211;53.452;-2.264;2023-04-25T06:39:17;4.10;99.90
6357;DHT22;3211;53.452;-2.264;2023-04-25T06:42:00;4.10;99.90
6357;DHT22;3211;53.452;-2.264;2023-04-25T06:44:42;4.20;99.90
6357;DHT22;3211;53.452;-2.264;2023-04-25T06:47:26;4.20;99.90
6357;DHT22;3211;53.452;-2.264;2023-04-25T06:50:08;4.30;99.90
6357;DHT22;3211;53.452;-2.264;2023-04-25T06:52:51;4.20;99.90
6357;DHT22;3211;53.452;-2.264;2023-04-25T06:55:33;4.30;99.90
6357;DHT22;3211;53.452;-2.264;2023-04-25T06:58:15;4.40;99.90
6357;DHT22;3211;53.452;-2.264;2023-04-25T07:00:57;4.50;99.90
6357;DHT22;3211;53.452;-2.264;2023-04-25T07:03:40;4.50;99.90
6357;DHT22;3211;53.452;-2.264;2023-04-25T07:06:22;4.70;99.90
6357;DHT22;3211;53.452;-2.264;2023-04-25T07:09:06;4.90;99.90
6357;DHT22;3211;53.452;-2.264;2023-04-25T07:11:49;5.00;99.90
6357;DHT22;3211;53.452;-2.264;2023-04-25T07:14:31;5.00;99.90
6357;DHT22;3211;53.452;-2.264;2023-04-25T07:17:13;4.90;99.90
6357;DHT22;3211;53.452;-2.264;2023-04-25T07:19:57;5.00;99.90
6357;DHT22;3211;53.452;-2.264;2023-04-25T07:22:39;4.90;99.90
6357;DHT22;3211;53.452;-2.264;2023-04-25T07:25:21;5.00;99.90
6357;DHT22;3211;53.452;-2.264;2023-04-25T07:28:03;5.10;99.90
6357;DHT22;3211;53.452;-2.264;2023-04-25T07:30:45;5.20;99.90
6357;DHT22;3211;53.452;-2.264;2023-04-25T07:33:27;5.20;99.90
6357;DHT22;3211;53.452;-2.264;2023-04-25T07:36:11;5.50;99.90
6357;DHT22;3211;53.452;-2.264;2023-04-25T07:38:52;5.60;99.90
6357;DHT22;3211;53.452;-2.264;2023-04-25T07:41:34;5.30;94.80
6357;DHT22;3211;53.452;-2.264;2023-04-25T07:44:16;5.40;99.90
6357;DHT22;3211;53.452;-2.264;2023-04-25T07:46:58;5.50;99.90
6357;DHT22;3211;53.452;-2.264;2023-04-25T07:49:40;5.60;82.50
6357;DHT22;3211;53.452;-2.264;2023-04-25T07:52:24;5.70;85.80
6357;DHT22;3211;53.452;-2.264;2023-04-25T07:55:06;5.90;84.40
6357;DHT22;3211;53.452;-2.264;2023-04-25T07:57:48;6.00;55.40
6357;DHT22;3211;53.452;-2.264;2023-04-25T08:00:30;6.10;47.40
6357;DHT22;3211;53.452;-2.264;2023-04-25T08:03:12;6.20;30.30
6357;DHT22;3211;53.452;-2.264;2023-04-25T08:05:54;6.20;19.10
6357;DHT22;3211;53.452;-2.264;2023-04-25T08:08:37;6.20;5.60
6357;DHT22;3211;53.452;-2.264;2023-04-25T08:11:20;6.30;1.00
6357;DHT22;3211;53.452;-2.264;2023-04-25T08:14:02;6.40;1.00
6357;DHT22;3211;53.452;-2.264;2023-04-25T08:16:44;6.30;1.00
6357;DHT22;3211;53.452;-2.264;2023-04-25T08:19:26;6.40;1.00
6357;DHT22;3211;53.452;-2.264;2023-04-25T08:22:08;6.50;1.00
6357;DHT22;3211;53.452;-2.264;2023-04-25T08:24:51;6.60;1.00
6357;DHT22;3211;53.452;-2.264;2023-04-25T08:27:33;6.50;1.00
6357;DHT22;3211;53.452;-2.264;2023-04-25T08:30:15;6.40;1.00
6357;DHT22;3211;53.452;-2.264;2023-04-25T08:32:57;6.60;1.00
6357;DHT22;3211;53.452;-2.264;2023-04-25T08:35:39;6.70;1.00
6357;DHT22;3211;53.452;-2.264;2023-04-25T08:38:21;6.70;1.00
6357;DHT22;3211;53.452;-2.264;2023-04-25T08:41:05;7.00;1.00
6357;DHT22;3211;53.452;-2.264;2023-04-25T08:43:48;6.80;1.00
6357;DHT22;3211;53.452;-2.264;2023-04-25T08:46:30;6.80;1.00
6357;DHT22;3211;53.452;-2.264;2023-04-25T08:49:12;7.00;1.00
6357;DHT22;3211;53.452;-2.264;2023-04-25T08:51:57;7.20;1.00
6357;DHT22;3211;53.452;-2.264;2023-04-25T08:54:43;7.40;1.00
6357;DHT22;3211;53.452;-2.264;2023-04-25T08:57:31;7.20;1.00
6357;DHT22;3211;53.452;-2.264;2023-04-25T09:00:14;7.10;1.00
6357;DHT22;3211;53.452;-2.264;2023-04-25T09:02:57;7.00;1.00
6357;DHT22;3211;53.452;-2.264;2023-04-25T09:05:40;7.10;1.00
6357;DHT22;3211;53.452;-2.264;2023-04-25T09:08:22;7.30;1.00
6357;DHT22;3211;53.452;-2.264;2023-04-25T09:11:04;7.60;1.00
6357;DHT22;3211;53.452;-2.264;2023-04-25T09:13:47;7.40;1.00
6357;DHT22;3211;53.452;-2.264;2023-04-25T09:16:29;7.80;1.00
6357;DHT22;3211;53.452;-2.264;2023-04-25T09:19:21;8.00;1.00
6357;DHT22;3211;53.452;-2.264;2023-04-25T09:22:04;8.10;1.00
6357;DHT22;3211;53.452;-2.264;2023-04-25T09:24:46;8.20;1.00
6357;DHT22;3211;53.452;-2.264;2023-04-25T09:27:30;8.30;1.00
6357;DHT22;3211;53.452;-2.264;2023-04-25T09:30:15;8.20;1.00
6357;DHT22;3211;53.452;-2.264;2023-04-25T09:33:04;8.40;1.00
6357;DHT22;3211;53.452;-2.264;2023-04-25T09:35:46;8.70;1.00
6357;DHT22;3211;53.452;-2.264;2023-04-25T09:38:40;8.90;1.00
6357;DHT22;3211;53.452;-2.264;2023-04-25T09:41:23;8.80;1.00
6357;DHT22;3211;53.452;-2.264;2023-04-25T09:44:05;9.10;1.00
6357;DHT22;3211;53.452;-2.264;2023-04-25T09:46:50;8.80;1.00
6357;DHT22;3211;53.452;-2.264;2023-04-25T09:49:34;8.60;1.00
6357;DHT22;3211;53.452;-2.264;2023-04-25T09:52:18;8.40;1.00
6357;DHT22;3211;53.452;-2.264;2023-04-25T09:55:00;8.60;1.00
6357;DHT22;3211;53.452;-2.264;2023-04-25T09:57:43;8.50;1.00
6357;DHT22;3211;53.452;-2.264;2023-04-25T10:00:26;8.70;1.00
6357;DHT22;3211;53.452;-2.264;2023-04-25T10:03:11;9.00;1.00
6357;DHT22;3211;53.452;-2.264;2023-04-25T10:05:53;9.00;1.00
6357;DHT22;3211;53.452;-2.264;2023-04-25T10:08:37;9.00;1.00
6357;DHT22;3211;53.452;-2.264;2023-04-25T10:11:19;9.30;1.00
6357;DHT22;3211;53.452;-2.264;2023-04-25T10:14:03;9.30;1.00
6357;DHT22;3211;53.452;-2.264;2023-04-25T10:16:47;9.20;1.00
6357;DHT22;3211;53.452;-2.264;2023-04-25T10:19:31;9.60;1.00
6357;DHT22;3211;53.452;-2.264;2023-04-25T10:22:18;10.10;1.00
6357;DHT22;3211;53.452;-2.264;2023-04-25T10:25:02;9.70;1.00
6357;DHT22;3211;53.452;-2.264;2023-04-25T10:27:44;9.70;1.00
6357;DHT22;3211;53.452;-2.264;2023-04-25T10:30:26;9.90;1.00
6357;DHT22;3211;53.452;-2.264;2023-04-25T10:33:17;10.20;1.00
6357;DHT22;3211;53.452;-2.264;2023-04-25T10:36:08;10.60;1.00
6357;DHT22;3211;53.452;-2.264;2023-04-25T10:38:51;11.00;1.00
6357;DHT22;3211;53.452;-2.264;2023-04-25T10:41:48;11.10;1.00
6357;DHT22;3211;53.452;-2.264;2023-04-25T10:44:34;11.00;1.00
6357;DHT22;3211;53.452;-2.264;2023-04-25T10:47:34;10.70;99.90
6357;DHT22;3211;53.452;-2.264;2023-04-25T10:50:16;10.50;1.00
6357;DHT22;3211;53.452;-2.264;2023-04-25T10:53:14;10.90;1.00
6357;DHT22;3211;53.452;-2.264;2023-04-25T10:55:56;11.30;99.90
6357;DHT22;3211;53.452;-2.264;2023-04-25T10:58:42;11.70;99.90
6357;DHT22;3211;53.452;-2.264;2023-04-25T11:01:24;12.00;99.90
6357;DHT22;3211;53.452;-2.264;2023-04-25T11:04:19;12.00;99.90
6357;DHT22;3211;53.452;-2.264;2023-04-25T11:07:13;11.80;99.90
6357;DHT22;3211;53.452;-2.264;2023-04-25T11:10:03;11.60;99.90
6357;DHT22;3211;53.452;-2.264;2023-04-25T11:12:46;11.60;99.90
6357;DHT22;3211;53.452;-2.264;2023-04-25T11:15:28;11.80;99.90
6357;DHT22;3211;53.452;-2.264;2023-04-25T11:18:10;11.70;99.90
6357;DHT22;3211;53.452;-2.264;2023-04-25T11:20:52;11.40;99.90
6357;DHT22;3211;53.452;-2.264;2023-04-25T11:23:34;11.30;99.90
6357;DHT22;3211;53.452;-2.264;2023-04-25T11:26:19;11.20;99.90
6357;DHT22;3211;53.452;-2.264;2023-04-25T11:29:01;11.10;99.90
6357;DHT22;3211;53.452;-2.264;2023-04-25T11:31:44;10.90;99.90
6357;DHT22;3211;53.452;-2.264;2023-04-25T11:34:26;11.50;99.90
6357;DHT22;3211;53.452;-2.264;2023-04-25T11:37:11;12.00;99.90
6357;DHT22;3211;53.452;-2.264;2023-04-25T11:39:54;11.60;99.90
6357;DHT22;3211;53.452;-2.264;2023-04-25T11:42:38;11.70;99.90
6357;DHT22;3211;53.452;-2.264;2023-04-25T11:45:20;11.70;99.90
6357;DHT22;3211;53.452;-2.264;2023-04-25T11:48:04;11.60;99.90
6357;DHT22;3211;53.452;-2.264;2023-04-25T11:50:46;11.60;99.90
6357;DHT22;3211;53.452;-2.264;2023-04-25T11:53:28;11.60;99.90
6357;DHT22;3211;53.452;-2.264;2023-04-25T11:56:11;11.40;99.90
6357;DHT22;3211;53.452;-2.264;2023-04-25T11:58:58;11.60;99.90
6357;DHT22;3211;53.452;-2.264;2023-04-25T12:01:47;12.30;99.90
6357;DHT22;3211;53.452;-2.264;2023-04-25T12:04:30;12.30;99.90
6357;DHT22;3211;53.452;-2.264;2023-04-25T12:07:13;12.50;99.90
6357;DHT22;3211;53.452;-2.264;2023-04-25T12:09:55;12.20;99.90
6357;DHT22;3211;53.452;-2.264;2023-04-25T12:12:38;12.10;99.90
6357;DHT22;3211;53.452;-2.264;2023-04-25T12:15:25;11.90;99.90
6357;DHT22;3211;53.452;-2.264;2023-04-25T12:18:07;12.10;99.90
6357;DHT22;3211;53.452;-2.264;2023-04-25T12:20:49;12.40;99.90
6357;DHT22;3211;53.452;-2.264;2023-04-25T12:23:31;12.60;99.90
6357;DHT22;3211;53.452;-2.264;2023-04-25T12:26:13;12.20;99.90
6357;DHT22;3211;53.452;-2.264;2023-04-25T12:28:55;12.00;99.90
6357;DHT22;3211;53.452;-2.264;2023-04-25T12:31:38;12.40;99.90
6357;DHT22;3211;53.452;-2.264;2023-04-25T12:34:20;12.90;99.90
6357;DHT22;3211;53.452;-2.264;2023-04-25T12:37:02;12.70;99.90
6357;DHT22;3211;53.452;-2.264;2023-04-25T12:39:45;12.40;99.90
6357;DHT22;3211;53.452;-2.264;2023-04-25T12:42:27;12.60;99.90
6357;DHT22;3211;53.452;-2.264;2023-04-25T12:45:09;13.00;99.90
6357;DHT22;3211;53.452;-2.264;2023-04-25T12:47:52;13.20;99.90
6357;DHT22;3211;53.452;-2.264;2023-04-25T12:50:34;13.50;99.90
6357;DHT22;3211;53.452;-2.264;2023-04-25T12:53:17;13.80;99.90
6357;DHT22;3211;53.452;-2.264;2023-04-25T12:55:59;13.80;99.90
6357;DHT22;3211;53.452;-2.264;2023-04-25T12:58:41;13.40;99.90
6357;DHT22;3211;53.452;-2.264;2023-04-25T13:01:24;12.90;99.90
6357;DHT22;3211;53.452;-2.264;2023-04-25T13:04:08;13.10;99.90
6357;DHT22;3211;53.452;-2.264;2023-04-25T13:06:50;12.80;99.90
6357;DHT22;3211;53.452;-2.264;2023-04-25T13:09:32;12.40;99.90
6357;DHT22;3211;53.452;-2.264;2023-04-25T13:12:14;12.30;99.90
6357;DHT22;3211;53.452;-2.264;2023-04-25T13:14:56;12.60;99.90
6357;DHT22;3211;53.452;-2.264;2023-04-25T13:17:38;12.70;99.90
6357;DHT22;3211;53.452;-2.264;2023-04-25T13:20:22;12.60;99.90
6357;DHT22;3211;53.452;-2.264;2023-04-25T13:23:04;12.60;99.90
6357;DHT22;3211;53.452;-2.264;2023-04-25T13:25:46;12.60;99.90
6357;DHT22;3211;53.452;-2.264;2023-04-25T13:28:28;12.20;99.90
6357;DHT22;3211;53.452;-2.264;2023-04-25T13:31:11;12.50;99.90
6357;DHT22;3211;53.452;-2.264;2023-04-25T13:33:53;12.20;99.90
6357;DHT22;3211;53.452;-2.264;2023-04-25T13:36:36;12.40;99.90
6357;DHT22;3211;53.452;-2.264;2023-04-25T13:39:18;12.60;99.90
6357;DHT22;3211;53.452;-2.264;2023-04-25T13:42:00;13.00;99.90
6357;DHT22;3211;53.452;-2.264;2023-04-25T13:44:42;13.00;99.90
6357;DHT22;3211;53.452;-2.264;2023-04-25T13:47:26;13.90;99.90
6357;DHT22;3211;53.452;-2.264;2023-04-25T13:50:09;14.10;99.90
6357;DHT22;3211;53.452;-2.264;2023-04-25T13:52:52;14.50;99.90
6357;DHT22;3211;53.452;-2.264;2023-04-25T13:55:34;14.90;99.90
6357;DHT22;3211;53.452;-2.264;2023-04-25T13:58:17;15.00;99.90
6357;DHT22;3211;53.452;-2.264;2023-04-25T14:01:00;14.50;99.90
6357;DHT22;3211;53.452;-2.264;2023-04-25T14:03:44;14.50;99.90
6357;DHT22;3211;53.452;-2.264;2023-04-25T14:06:26;14.70;99.90
6357;DHT22;3211;53.452;-2.264;2023-04-25T14:09:10;14.70;99.90
6357;DHT22;3211;53.452;-2.264;2023-04-25T14:11:54;14.80;99.90
6357;DHT22;3211;53.452;-2.264;2023-04-25T14:14:36;14.50;99.90
6357;DHT22;3211;53.452;-2.264;2023-04-25T14:17:18;13.90;99.90
6357;DHT22;3211;53.452;-2.264;2023-04-25T14:20:00;13.70;99.90
6357;DHT22;3211;53.452;-2.264;2023-04-25T14:22:42;13.30;99.90
6357;DHT22;3211;53.452;-2.264;2023-04-25T14:25:27;13.30;99.90
6357;DHT22;3211;53.452;-2.264;2023-04-25T14:28:10;13.10;99.90
6357;DHT22;3211;53.452;-2.264;2023-04-25T14:30:52;13.20;99.90
6357;DHT22;3211;53.452;-2.264;2023-04-25T14:33:34;14.00;99.90
6357;DHT22;3211;53.452;-2.264;2023-04-25T14:36:16;14.90;99.90
6357;DHT22;3211;53.452;-2.264;2023-04-25T14:38:58;14.60;99.90
6357;DHT22;3211;53.452;-2.264;2023-04-25T14:41:42;13.90;99.90
6357;DHT22;3211;53.452;-2.264;2023-04-25T14:44:24;13.60;99.90
6357;DHT22;3211;53.452;-2.264;2023-04-25T14:47:06;13.40;99.90
6357;DHT22;3211;53.452;-2.264;2023-04-25T14:49:48;12.90;99.90
6357;DHT22;3211;53.452;-2.264;2023-04-25T14:52:34;12.60;99.90
6357;DHT22;3211;53.452;-2.264;2023-04-25T14:55:16;13.80;99.90
6357;DHT22;3211;53.452;-2.264;2023-04-25T14:58:00;19.40;99.90
6357;DHT22;3211;53.452;-2.264;2023-04-25T15:00:42;20.90;99.90
6357;DHT22;3211;53.452;-2.264;2023-04-25T15:03:25;20.80;99.90
6357;DHT22;3211;53.452;-2.264;2023-04-25T15:06:07;15.80;99.90
6357;DHT22;3211;53.452;-2.264;2023-04-25T15:08:49;14.20;99.90
6357;DHT22;3211;53.452;-2.264;2023-04-25T15:11:31;13.50;99.90
6357;DHT22;3211;53.452;-2.264;2023-04-25T15:14:14;13.20;99.90
6357;DHT22;3211;53.452;-2.264;2023-04-25T15:16:56;13.00;99.90
6357;DHT22;3211;53.452;-2.264;2023-04-25T15:19:38;12.90;99.90
6357;DHT22;3211;53.452;-2.264;2023-04-25T15:22:20;13.00;99.90
6357;DHT22;3211;53.452;-2.264;2023-04-25T15:25:02;12.80;99.90
6357;DHT22;3211;53.452;-2.264;2023-04-25T15:27:44;12.70;99.90
6357;DHT22;3211;53.452;-2.264;2023-04-25T15:30:30;12.80;99.90
6357;DHT22;3211;53.452;-2.264;2023-04-25T15:33:12;12.60;99.90
6357;DHT22;3211;53.452;-2.264;2023-04-25T15:35:55;12.50;99.90
6357;DHT22;3211;53.452;-2.264;2023-04-25T15:38:38;12.70;99.90
6357;DHT22;3211;53.452;-2.264;2023-04-25T15:41:20;12.60;99.90
6357;DHT22;3211;53.452;-2.264;2023-04-25T15:44:02;12.80;99.90
6357;DHT22;3211;53.452;-2.264;2023-04-25T15:46:45;12.70;99.90
6357;DHT22;3211;53.452;-2.264;2023-04-25T15:49:27;12.80;99.90
6357;DHT22;3211;53.452;-2.264;2023-04-25T15:52:09;12.50;99.90
6357;DHT22;3211;53.452;-2.264;2023-04-25T15:54:51;12.50;99.90
6357;DHT22;3211;53.452;-2.264;2023-04-25T15:57:33;12.30;99.90
6357;DHT22;3211;53.452;-2.264;2023-04-25T16:00:16;12.30;99.90
6357;DHT22;3211;53.452;-2.264;2023-04-25T16:03:01;12.00;99.90
6357;DHT22;3211;53.452;-2.264;2023-04-25T16:05:43;12.20;99.90
6357;DHT22;3211;53.452;-2.264;2023-04-25T16:08:26;12.60;99.90
6357;DHT22;3211;53.452;-2.264;2023-04-25T16:11:09;16.50;99.90
6357;DHT22;3211;53.452;-2.264;2023-04-25T16:13:54;17.60;99.90
6357;DHT22;3211;53.452;-2.264;2023-04-25T16:16:36;20.30;99.90
6357;DHT22;3211;53.452;-2.264;2023-04-25T16:19:19;22.10;99.90
6357;DHT22;3211;53.452;-2.264;2023-04-25T16:22:01;21.30;99.90
6357;DHT22;3211;53.452;-2.264;2023-04-25T16:24:43;22.00;99.90
6357;DHT22;3211;53.452;-2.264;2023-04-25T16:27:25;20.00;99.90
6357;DHT22;3211;53.452;-2.264;2023-04-25T16:30:09;19.50;99.90
6357;DHT22;3211;53.452;-2.264;2023-04-25T16:32:51;18.20;99.90
6357;DHT22;3211;53.452;-2.264;2023-04-25T16:35:35;17.30;99.90
6357;DHT22;3211;53.452;-2.264;2023-04-25T16:38:16;16.70;99.90
6357;DHT22;3211;53.452;-2.264;2023-04-25T16:40:58;16.40;99.90
6357;DHT22;3211;53.452;-2.264;2023-04-25T16:43:40;15.80;99.90
6357;DHT22;3211;53.452;-2.264;2023-04-25T16:46:22;14.90;99.90
6357;DHT22;3211;53.452;-2.264;2023-04-25T16:49:04;14.20;99.90
6357;DHT22;3211;53.452;-2.264;2023-04-25T16:51:48;13.90;99.90
6357;DHT22;3211;53.452;-2.264;2023-04-25T16:54:31;13.60;99.90
6357;DHT22;3211;53.452;-2.264;2023-04-25T16:57:13;13.70;99.90
6357;DHT22;3211;53.452;-2.264;2023-04-25T16:59:55;13.70;99.90
6357;DHT22;3211;53.452;-2.264;2023-04-25T17:02:37;13.80;99.90
6357;DHT22;3211;53.452;-2.264;2023-04-25T17:05:19;14.00;99.90
6357;DHT22;3211;53.452;-2.264;2023-04-25T17:08:03;13.60;99.90
6357;DHT22;3211;53.452;-2.264;2023-04-25T17:10:45;13.30;99.90
6357;DHT22;3211;53.452;-2.264;2023-04-25T17:13:27;13.70;99.90
6357;DHT22;3211;53.452;-2.264;2023-04-25T17:16:09;14.00;99.90
6357;DHT22;3211;53.452;-2.264;2023-04-25T17:18:53;14.10;99.90
6357;DHT22;3211;53.452;-2.264;2023-04-25T17:21:35;13.90;99.90
6357;DHT22;3211;53.452;-2.264;2023-04-25T17:24:18;13.70;99.90
6357;DHT22;3211;53.452;-2.264;2023-04-25T17:27:01;14.40;99.90
6357;DHT22;3211;53.452;-2.264;2023-04-25T17:29:43;14.60;99.90
6357;DHT22;3211;53.452;-2.264;2023-04-25T17:32:26;14.50;99.90
6357;DHT22;3211;53.452;-2.264;2023-04-25T17:35:08;14.30;99.90
6357;DHT22;3211;53.452;-2.264;2023-04-25T17:37:50;14.10;99.90